sensor_id;sensor_type;location;lat;lon;timestamp;temperature;humidity
47757;SHT35;22147;52.388;13.390;2024-01-25T00:00:43;8.51;71.89
47757;SHT35;22147;52.388;13.390;2024-01-25T00:03:11;8.53;71.94
47757;SHT35;22147;52.388;13.390;2024-01-25T00:05:40;8.44;72.54
47757;SHT35;22147;52.388;13.390;2024-01-25T00:08:08;8.51;72.09
47757;SHT35;22147;52.388;13.390;2024-01-25T00:10:37;8.60;71.94
47757;SHT35;22147;52.388;13.390;2024-01-25T00:13:05;8.63;71.95
47757;SHT35;22147;52.388;13.390;2024-01-25T00:15:34;8.55;72.20
47757;SHT35;22147;52.388;13.390;2024-01-25T00:18:02;8.60;72.00
47757;SHT35;22147;52.388;13.390;2024-01-25T00:20:31;8.55;72.19
47757;SHT35;22147;52.388;13.390;2024-01-25T00:22:59;8.60;72.18
47757;SHT35;22147;52.388;13.390;2024-01-25T00:25:28;8.54;72.36
47757;SHT35;22147;52.388;13.390;2024-01-25T00:27:56;8.60;72.30
47757;SHT35;22147;52.388;13.390;2024-01-25T00:30:24;8.50;72.63
47757;SHT35;22147;52.388;13.390;2024-01-25T00:32:53;8.48;72.09
47757;SHT35;22147;52.388;13.390;2024-01-25T00:35:22;8.61;71.99
47757;SHT35;22147;52.388;13.390;2024-01-25T00:37:50;8.60;71.95
47757;SHT35;22147;52.388;13.390;2024-01-25T00:40:19;8.63;71.87
47757;SHT35;22147;52.388;13.390;2024-01-25T00:42:47;8.55;71.97
47757;SHT35;22147;52.388;13.390;2024-01-25T00:45:24;8.67;71.92
47757;SHT35;22147;52.388;13.390;2024-01-25T00:47:54;8.57;72.03
47757;SHT35;22147;52.388;13.390;2024-01-25T00:50:26;8.60;71.76
47757;SHT35;22147;52.388;13.390;2024-01-25T00:52:57;8.72;71.17
47757;SHT35;22147;52.388;13.390;2024-01-25T00:55:28;8.57;71.70
47757;SHT35;22147;52.388;13.390;2024-01-25T00:57:58;8.74;71.23
47757;SHT35;22147;52.388;13.390;2024-01-25T01:00:30;8.58;71.77
47757;SHT35;22147;52.388;13.390;2024-01-25T01:03:03;8.58;71.55
47757;SHT35;22147;52.388;13.390;2024-01-25T01:05:35;8.58;71.76
47757;SHT35;22147;52.388;13.390;2024-01-25T01:08:06;8.63;71.36
47757;SHT35;22147;52.388;13.390;2024-01-25T01:10:36;8.61;71.63
47757;SHT35;22147;52.388;13.390;2024-01-25T01:13:06;8.67;71.29
47757;SHT35;22147;52.388;13.390;2024-01-25T01:15:35;8.53;71.72
47757;SHT35;22147;52.388;13.390;2024-01-25T01:18:04;8.54;71.41
47757;SHT35;22147;52.388;13.390;2024-01-25T01:20:38;8.50;71.71
47757;SHT35;22147;52.388;13.390;2024-01-25T01:23:06;8.55;71.41
47757;SHT35;22147;52.388;13.390;2024-01-25T01:25:34;8.63;71.34
47757;SHT35;22147;52.388;13.390;2024-01-25T01:28:03;8.54;71.40
47757;SHT35;22147;52.388;13.390;2024-01-25T01:30:31;8.50;71.30
47757;SHT35;22147;52.388;13.390;2024-01-25T01:33:00;8.40;71.67
47757;SHT35;22147;52.388;13.390;2024-01-25T01:35:28;8.48;71.28
47757;SHT35;22147;52.388;13.390;2024-01-25T01:37:56;8.50;71.28
47757;SHT35;22147;52.388;13.390;2024-01-25T01:40:25;8.51;70.86
47757;SHT35;22147;52.388;13.390;2024-01-25T01:43:03;8.51;71.02
47757;SHT35;22147;52.388;13.390;2024-01-25T01:45:33;8.48;71.52
47757;SHT35;22147;52.388;13.390;2024-01-25T01:48:04;8.51;71.39
47757;SHT35;22147;52.388;13.390;2024-01-25T01:50:35;8.58;71.07
47757;SHT35;22147;52.388;13.390;2024-01-25T01:53:06;8.48;71.79
47757;SHT35;22147;52.388;13.390;2024-01-25T01:55:39;8.44;71.59
47757;SHT35;22147;52.388;13.390;2024-01-25T01:58:11;8.53;71.44
47757;SHT35;22147;52.388;13.390;2024-01-25T02:00:45;8.47;71.64
47757;SHT35;22147;52.388;13.390;2024-01-25T02:03:16;8.45;71.33
47757;SHT35;22147;52.388;13.390;2024-01-25T02:05:46;8.45;71.35
47757;SHT35;22147;52.388;13.390;2024-01-25T02:08:17;8.36;72.24
47757;SHT35;22147;52.388;13.390;2024-01-25T02:10:47;8.40;71.47
47757;SHT35;22147;52.388;13.390;2024-01-25T02:13:17;8.48;70.95
47757;SHT35;22147;52.388;13.390;2024-01-25T02:15:48;8.47;71.05
47757;SHT35;22147;52.388;13.390;2024-01-25T02:18:19;8.47;70.80
47757;SHT35;22147;52.388;13.390;2024-01-25T02:20:50;8.51;70.95
47757;SHT35;22147;52.388;13.390;2024-01-25T02:23:20;8.47;70.85
47757;SHT35;22147;52.388;13.390;2024-01-25T02:25:49;8.54;70.52
47757;SHT35;22147;52.388;13.390;2024-01-25T02:28:17;8.48;71.02
47757;SHT35;22147;52.388;13.390;2024-01-25T02:30:46;8.36;71.76
47757;SHT35;22147;52.388;13.390;2024-01-25T02:33:14;8.33;71.65
47757;SHT35;22147;52.388;13.390;2024-01-25T02:35:43;8.36;71.34
47757;SHT35;22147;52.388;13.390;2024-01-25T02:38:11;8.36;71.58
47757;SHT35;22147;52.388;13.390;2024-01-25T02:40:40;8.43;71.29
47757;SHT35;22147;52.388;13.390;2024-01-25T02:43:08;8.44;71.21
47757;SHT35;22147;52.388;13.390;2024-01-25T02:45:36;8.41;70.85
47757;SHT35;22147;52.388;13.390;2024-01-25T02:48:05;8.38;70.84
47757;SHT35;22147;52.388;13.390;2024-01-25T02:50:35;8.36;70.96
47757;SHT35;22147;52.388;13.390;2024-01-25T02:53:03;8.23;71.58
47757;SHT35;22147;52.388;13.390;2024-01-25T02:55:31;8.33;71.34
47757;SHT35;22147;52.388;13.390;2024-01-25T02:57:59;8.38;70.93
47757;SHT35;22147;52.388;13.390;2024-01-25T03:00:28;8.36;71.00
47757;SHT35;22147;52.388;13.390;2024-01-25T03:02:56;8.33;71.05
47757;SHT35;22147;52.388;13.390;2024-01-25T03:05:25;8.20;71.66
47757;SHT35;22147;52.388;13.390;2024-01-25T03:07:53;8.17;71.98
47757;SHT35;22147;52.388;13.390;2024-01-25T03:10:22;8.29;71.28
47757;SHT35;22147;52.388;13.390;2024-01-25T03:12:50;8.26;71.19
47757;SHT35;22147;52.388;13.390;2024-01-25T03:15:18;8.33;71.21
47757;SHT35;22147;52.388;13.390;2024-01-25T03:17:47;8.20;71.64
47757;SHT35;22147;52.388;13.390;2024-01-25T03:20:15;8.23;71.49
47757;SHT35;22147;52.388;13.390;2024-01-25T03:22:44;8.12;71.62
47757;SHT35;22147;52.388;13.390;2024-01-25T03:25:12;8.14;71.56
47757;SHT35;22147;52.388;13.390;2024-01-25T03:27:40;8.12;71.77
47757;SHT35;22147;52.388;13.390;2024-01-25T03:30:10;8.17;71.59
47757;SHT35;22147;52.388;13.390;2024-01-25T03:32:40;8.26;71.00
47757;SHT35;22147;52.388;13.390;2024-01-25T03:35:08;8.22;71.20
47757;SHT35;22147;52.388;13.390;2024-01-25T03:37:37;8.13;71.60
47757;SHT35;22147;52.388;13.390;2024-01-25T03:40:08;8.07;71.50
47757;SHT35;22147;52.388;13.390;2024-01-25T03:42:41;8.07;71.69
47757;SHT35;22147;52.388;13.390;2024-01-25T03:45:19;8.10;71.73
47757;SHT35;22147;52.388;13.390;2024-01-25T03:47:50;8.13;71.21
47757;SHT35;22147;52.388;13.390;2024-01-25T03:50:20;7.99;71.86
47757;SHT35;22147;52.388;13.390;2024-01-25T03:52:50;8.09;71.18
47757;SHT35;22147;52.388;13.390;2024-01-25T03:55:20;8.16;71.03
47757;SHT35;22147;52.388;13.390;2024-01-25T03:57:51;8.13;71.38
47757;SHT35;22147;52.388;13.390;2024-01-25T04:00:21;8.07;71.20
47757;SHT35;22147;52.388;13.390;2024-01-25T04:02:52;7.97;71.91
47757;SHT35;22147;52.388;13.390;2024-01-25T04:05:23;7.97;71.79
47757;SHT35;22147;52.388;13.390;2024-01-25T04:07:53;8.10;71.22
47757;SHT35;22147;52.388;13.390;2024-01-25T04:10:23;8.06;71.12
47757;SHT35;22147;52.388;13.390;2024-01-25T04:12:54;7.93;71.82
47757;SHT35;22147;52.388;13.390;2024-01-25T04:15:25;7.95;71.91
47757;SHT35;22147;52.388;13.390;2024-01-25T04:17:53;7.83;71.83
47757;SHT35;22147;52.388;13.390;2024-01-25T04:20:25;8.05;71.00
47757;SHT35;22147;52.388;13.390;2024-01-25T04:22:53;8.06;70.91
47757;SHT35;22147;52.388;13.390;2024-01-25T04:25:24;7.90;71.24
47757;SHT35;22147;52.388;13.390;2024-01-25T04:27:54;8.00;70.86
47757;SHT35;22147;52.388;13.390;2024-01-25T04:30:24;8.02;71.16
47757;SHT35;22147;52.388;13.390;2024-01-25T04:32:54;7.96;71.31
47757;SHT35;22147;52.388;13.390;2024-01-25T04:35:25;7.93;71.25
47757;SHT35;22147;52.388;13.390;2024-01-25T04:37:55;8.02;71.03
47757;SHT35;22147;52.388;13.390;2024-01-25T04:40:26;7.99;71.12
47757;SHT35;22147;52.388;13.390;2024-01-25T04:42:56;8.06;71.12
47757;SHT35;22147;52.388;13.390;2024-01-25T04:45:27;7.88;71.82
47757;SHT35;22147;52.388;13.390;2024-01-25T04:47:57;7.93;71.58
47757;SHT35;22147;52.388;13.390;2024-01-25T04:50:27;7.99;70.96
47757;SHT35;22147;52.388;13.390;2024-01-25T04:52:58;7.89;71.53
47757;SHT35;22147;52.388;13.390;2024-01-25T04:55:31;8.02;71.32
47757;SHT35;22147;52.388;13.390;2024-01-25T04:58:01;7.85;71.90
47757;SHT35;22147;52.388;13.390;2024-01-25T05:00:31;7.88;71.81
47757;SHT35;22147;52.388;13.390;2024-01-25T05:03:02;8.05;71.46
47757;SHT35;22147;52.388;13.390;2024-01-25T05:05:30;7.93;71.75
47757;SHT35;22147;52.388;13.390;2024-01-25T05:07:59;7.88;71.79
47757;SHT35;22147;52.388;13.390;2024-01-25T05:10:27;7.82;72.30
47757;SHT35;22147;52.388;13.390;2024-01-25T05:12:55;7.79;72.53
47757;SHT35;22147;52.388;13.390;2024-01-25T05:15:24;7.88;72.29
47757;SHT35;22147;52.388;13.390;2024-01-25T05:17:52;7.92;72.11
47757;SHT35;22147;52.388;13.390;2024-01-25T05:20:21;7.95;72.00
47757;SHT35;22147;52.388;13.390;2024-01-25T05:22:50;7.88;72.50
47757;SHT35;22147;52.388;13.390;2024-01-25T05:25:18;7.81;72.54
47757;SHT35;22147;52.388;13.390;2024-01-25T05:27:47;7.89;72.44
47757;SHT35;22147;52.388;13.390;2024-01-25T05:30:15;7.85;72.45
47757;SHT35;22147;52.388;13.390;2024-01-25T05:32:44;7.76;72.63
47757;SHT35;22147;52.388;13.390;2024-01-25T05:35:17;7.86;72.61
47757;SHT35;22147;52.388;13.390;2024-01-25T05:37:48;7.83;72.89
47757;SHT35;22147;52.388;13.390;2024-01-25T05:40:18;7.96;72.08
47757;SHT35;22147;52.388;13.390;2024-01-25T05:42:49;7.95;72.30
47757;SHT35;22147;52.388;13.390;2024-01-25T05:45:19;7.89;72.61
47757;SHT35;22147;52.388;13.390;2024-01-25T05:47:51;7.79;73.08
47757;SHT35;22147;52.388;13.390;2024-01-25T05:50:21;7.66;73.48
47757;SHT35;22147;52.388;13.390;2024-01-25T05:52:52;7.78;73.07
47757;SHT35;22147;52.388;13.390;2024-01-25T05:55:22;7.85;72.77
47757;SHT35;22147;52.388;13.390;2024-01-25T05:57:53;7.81;72.87
47757;SHT35;22147;52.388;13.390;2024-01-25T06:00:23;7.74;73.05
47757;SHT35;22147;52.388;13.390;2024-01-25T06:02:53;7.79;72.96
47757;SHT35;22147;52.388;13.390;2024-01-25T06:05:22;7.76;72.85
47757;SHT35;22147;52.388;13.390;2024-01-25T06:07:50;7.85;72.65
47757;SHT35;22147;52.388;13.390;2024-01-25T06:10:21;7.83;72.38
47757;SHT35;22147;52.388;13.390;2024-01-25T06:12:51;7.69;73.10
47757;SHT35;22147;52.388;13.390;2024-01-25T06:15:22;7.76;72.58
47757;SHT35;22147;52.388;13.390;2024-01-25T06:17:51;7.86;72.68
47757;SHT35;22147;52.388;13.390;2024-01-25T06:20:22;7.88;72.36
47757;SHT35;22147;52.388;13.390;2024-01-25T06:22:53;7.86;72.13
47757;SHT35;22147;52.388;13.390;2024-01-25T06:25:23;7.78;72.59
47757;SHT35;22147;52.388;13.390;2024-01-25T06:27:53;7.68;72.79
47757;SHT35;22147;52.388;13.390;2024-01-25T06:30:23;7.81;72.38
47757;SHT35;22147;52.388;13.390;2024-01-25T06:32:53;7.93;72.00
47757;SHT35;22147;52.388;13.390;2024-01-25T06:35:23;7.81;72.32
47757;SHT35;22147;52.388;13.390;2024-01-25T06:37:54;7.72;72.84
47757;SHT35;22147;52.388;13.390;2024-01-25T06:40:24;7.74;72.81
47757;SHT35;22147;52.388;13.390;2024-01-25T06:42:54;7.79;72.41
47757;SHT35;22147;52.388;13.390;2024-01-25T06:45:24;7.75;72.57
47757;SHT35;22147;52.388;13.390;2024-01-25T06:47:54;7.79;72.37
47757;SHT35;22147;52.388;13.390;2024-01-25T06:50:22;7.78;72.24
47757;SHT35;22147;52.388;13.390;2024-01-25T06:52:50;7.78;72.05
47757;SHT35;22147;52.388;13.390;2024-01-25T06:55:22;7.79;71.91
47757;SHT35;22147;52.388;13.390;2024-01-25T06:57:50;7.86;71.91
47757;SHT35;22147;52.388;13.390;2024-01-25T07:00:19;7.81;72.08
47757;SHT35;22147;52.388;13.390;2024-01-25T07:02:50;7.82;72.45
47757;SHT35;22147;52.388;13.390;2024-01-25T07:05:19;7.76;72.88
47757;SHT35;22147;52.388;13.390;2024-01-25T07:07:47;7.79;72.81
47757;SHT35;22147;52.388;13.390;2024-01-25T07:10:15;7.65;73.44
47757;SHT35;22147;52.388;13.390;2024-01-25T07:12:44;7.68;73.69
47757;SHT35;22147;52.388;13.390;2024-01-25T07:15:12;7.68;73.64
47757;SHT35;22147;52.388;13.390;2024-01-25T07:17:40;7.78;73.13
47757;SHT35;22147;52.388;13.390;2024-01-25T07:20:12;7.76;73.37
47757;SHT35;22147;52.388;13.390;2024-01-25T07:22:41;7.71;73.57
47757;SHT35;22147;52.388;13.390;2024-01-25T07:25:08;7.72;73.51
47757;SHT35;22147;52.388;13.390;2024-01-25T07:27:38;7.76;73.29
47757;SHT35;22147;52.388;13.390;2024-01-25T07:30:10;7.79;73.19
47757;SHT35;22147;52.388;13.390;2024-01-25T07:32:39;7.88;73.27
47757;SHT35;22147;52.388;13.390;2024-01-25T07:35:12;7.83;73.37
47757;SHT35;22147;52.388;13.390;2024-01-25T07:37:41;7.66;74.02
47757;SHT35;22147;52.388;13.390;2024-01-25T07:40:12;7.66;73.95
47757;SHT35;22147;52.388;13.390;2024-01-25T07:42:42;7.64;74.29
47757;SHT35;22147;52.388;13.390;2024-01-25T07:45:12;7.76;74.13
47757;SHT35;22147;52.388;13.390;2024-01-25T07:47:43;7.74;74.13
47757;SHT35;22147;52.388;13.390;2024-01-25T07:50:13;7.86;73.89
47757;SHT35;22147;52.388;13.390;2024-01-25T07:52:43;7.90;73.84
47757;SHT35;22147;52.388;13.390;2024-01-25T07:55:13;7.86;74.09
47757;SHT35;22147;52.388;13.390;2024-01-25T07:57:43;7.74;74.30
47757;SHT35;22147;52.388;13.390;2024-01-25T08:00:14;7.79;74.26
47757;SHT35;22147;52.388;13.390;2024-01-25T08:02:44;7.79;74.31
47757;SHT35;22147;52.388;13.390;2024-01-25T08:05:14;7.78;74.36
47757;SHT35;22147;52.388;13.390;2024-01-25T08:07:45;7.72;74.57
47757;SHT35;22147;52.388;13.390;2024-01-25T08:10:16;7.64;75.00
47757;SHT35;22147;52.388;13.390;2024-01-25T08:12:46;7.66;74.69
47757;SHT35;22147;52.388;13.390;2024-01-25T08:15:28;7.69;74.92
47757;SHT35;22147;52.388;13.390;2024-01-25T08:17:58;7.71;74.79
47757;SHT35;22147;52.388;13.390;2024-01-25T08:20:28;7.78;74.41
47757;SHT35;22147;52.388;13.390;2024-01-25T08:22:59;7.81;74.32
47757;SHT35;22147;52.388;13.390;2024-01-25T08:25:29;7.81;74.44
47757;SHT35;22147;52.388;13.390;2024-01-25T08:27:59;7.81;74.25
47757;SHT35;22147;52.388;13.390;2024-01-25T08:30:30;7.82;74.15
47757;SHT35;22147;52.388;13.390;2024-01-25T08:33:00;7.81;74.45
47757;SHT35;22147;52.388;13.390;2024-01-25T08:35:30;7.86;74.02
47757;SHT35;22147;52.388;13.390;2024-01-25T08:38:01;7.89;74.08
47757;SHT35;22147;52.388;13.390;2024-01-25T08:40:31;7.89;74.02
47757;SHT35;22147;52.388;13.390;2024-01-25T08:43:00;7.90;73.66
47757;SHT35;22147;52.388;13.390;2024-01-25T08:45:30;7.96;73.69
47757;SHT35;22147;52.388;13.390;2024-01-25T08:48:01;7.89;74.24
47757;SHT35;22147;52.388;13.390;2024-01-25T08:50:31;7.89;73.93
47757;SHT35;22147;52.388;13.390;2024-01-25T08:53:03;7.96;74.01
47757;SHT35;22147;52.388;13.390;2024-01-25T08:55:32;8.09;73.63
47757;SHT35;22147;52.388;13.390;2024-01-25T08:58:03;8.03;74.03
47757;SHT35;22147;52.388;13.390;2024-01-25T09:00:33;8.05;73.17
47757;SHT35;22147;52.388;13.390;2024-01-25T09:03:04;7.96;73.69
47757;SHT35;22147;52.388;13.390;2024-01-25T09:05:34;8.07;72.62
47757;SHT35;22147;52.388;13.390;2024-01-25T09:08:11;8.00;72.75
47757;SHT35;22147;52.388;13.390;2024-01-25T09:10:42;8.09;72.61
47757;SHT35;22147;52.388;13.390;2024-01-25T09:13:14;8.09;72.07
47757;SHT35;22147;52.388;13.390;2024-01-25T09:15:45;8.07;72.31
47757;SHT35;22147;52.388;13.390;2024-01-25T09:18:17;7.95;73.20
47757;SHT35;22147;52.388;13.390;2024-01-25T09:20:47;8.02;73.39
47757;SHT35;22147;52.388;13.390;2024-01-25T09:23:18;8.13;73.00
47757;SHT35;22147;52.388;13.390;2024-01-25T09:25:50;8.20;72.85
47757;SHT35;22147;52.388;13.390;2024-01-25T09:28:22;8.12;72.70
47757;SHT35;22147;52.388;13.390;2024-01-25T09:30:53;8.12;73.19
47757;SHT35;22147;52.388;13.390;2024-01-25T09:33:24;8.30;72.73
47757;SHT35;22147;52.388;13.390;2024-01-25T09:35:54;8.36;71.65
47757;SHT35;22147;52.388;13.390;2024-01-25T09:38:25;8.27;71.27
47757;SHT35;22147;52.388;13.390;2024-01-25T09:40:56;8.29;72.00
47757;SHT35;22147;52.388;13.390;2024-01-25T09:43:27;8.20;72.28
47757;SHT35;22147;52.388;13.390;2024-01-25T09:45:55;8.32;71.73
47757;SHT35;22147;52.388;13.390;2024-01-25T09:48:24;8.20;71.87
47757;SHT35;22147;52.388;13.390;2024-01-25T09:50:55;8.26;71.90
47757;SHT35;22147;52.388;13.390;2024-01-25T09:53:24;8.27;71.97
47757;SHT35;22147;52.388;13.390;2024-01-25T09:56:09;8.22;71.93
47757;SHT35;22147;52.388;13.390;2024-01-25T09:58:42;8.29;71.77
47757;SHT35;22147;52.388;13.390;2024-01-25T10:01:15;8.27;71.38
47757;SHT35;22147;52.388;13.390;2024-01-25T10:03:46;8.22;71.94
47757;SHT35;22147;52.388;13.390;2024-01-25T10:06:17;8.24;72.41
47757;SHT35;22147;52.388;13.390;2024-01-25T10:08:49;8.22;72.14
47757;SHT35;22147;52.388;13.390;2024-01-25T10:11:19;8.17;72.44
47757;SHT35;22147;52.388;13.390;2024-01-25T10:13:50;8.24;71.89
47757;SHT35;22147;52.388;13.390;2024-01-25T10:16:21;8.23;71.91
47757;SHT35;22147;52.388;13.390;2024-01-25T10:18:51;8.14;72.23
47757;SHT35;22147;52.388;13.390;2024-01-25T10:21:22;8.20;72.30
47757;SHT35;22147;52.388;13.390;2024-01-25T10:23:51;8.14;71.88
47757;SHT35;22147;52.388;13.390;2024-01-25T10:26:22;8.27;71.76
47757;SHT35;22147;52.388;13.390;2024-01-25T10:28:52;8.33;71.84
47757;SHT35;22147;52.388;13.390;2024-01-25T10:31:36;8.34;71.47
47757;SHT35;22147;52.388;13.390;2024-01-25T10:34:13;8.48;71.10
47757;SHT35;22147;52.388;13.390;2024-01-25T10:36:44;8.54;70.27
47757;SHT35;22147;52.388;13.390;2024-01-25T10:39:17;8.54;70.41
47757;SHT35;22147;52.388;13.390;2024-01-25T10:41:50;8.48;71.11
47757;SHT35;22147;52.388;13.390;2024-01-25T10:44:22;8.48;70.18
47757;SHT35;22147;52.388;13.390;2024-01-25T10:46:53;8.55;70.66
47757;SHT35;22147;52.388;13.390;2024-01-25T10:49:26;8.54;70.63
47757;SHT35;22147;52.388;13.390;2024-01-25T10:51:59;8.63;70.62
47757;SHT35;22147;52.388;13.390;2024-01-25T10:54:29;8.63;70.31
47757;SHT35;22147;52.388;13.390;2024-01-25T10:57:00;8.65;70.38
47757;SHT35;22147;52.388;13.390;2024-01-25T10:59:31;8.57;70.90
47757;SHT35;22147;52.388;13.390;2024-01-25T11:02:01;8.64;69.84
47757;SHT35;22147;52.388;13.390;2024-01-25T11:04:32;8.65;70.12
47757;SHT35;22147;52.388;13.390;2024-01-25T11:07:09;8.67;70.40
47757;SHT35;22147;52.388;13.390;2024-01-25T11:09:41;8.74;69.69
47757;SHT35;22147;52.388;13.390;2024-01-25T11:12:12;8.76;69.39
47757;SHT35;22147;52.388;13.390;2024-01-25T11:14:45;8.76;69.50
47757;SHT35;22147;52.388;13.390;2024-01-25T11:17:20;8.63;70.31
47757;SHT35;22147;52.388;13.390;2024-01-25T11:19:51;8.78;69.85
47757;SHT35;22147;52.388;13.390;2024-01-25T11:22:19;8.79;69.89
47757;SHT35;22147;52.388;13.390;2024-01-25T11:24:47;8.78;68.92
47757;SHT35;22147;52.388;13.390;2024-01-25T11:27:19;8.68;69.35
47757;SHT35;22147;52.388;13.390;2024-01-25T11:29:48;8.76;69.26
47757;SHT35;22147;52.388;13.390;2024-01-25T11:32:16;8.75;69.33
47757;SHT35;22147;52.388;13.390;2024-01-25T11:34:44;8.91;68.06
47757;SHT35;22147;52.388;13.390;2024-01-25T11:37:12;8.86;68.62
47757;SHT35;22147;52.388;13.390;2024-01-25T11:39:43;8.98;67.85
47757;SHT35;22147;52.388;13.390;2024-01-25T11:42:14;8.91;66.89
47757;SHT35;22147;52.388;13.390;2024-01-25T11:44:44;8.79;67.29
47757;SHT35;22147;52.388;13.390;2024-01-25T11:47:14;8.89;66.41
47757;SHT35;22147;52.388;13.390;2024-01-25T11:49:44;8.78;66.59
47757;SHT35;22147;52.388;13.390;2024-01-25T11:52:14;8.86;66.16
47757;SHT35;22147;52.388;13.390;2024-01-25T11:54:46;8.81;66.89
47757;SHT35;22147;52.388;13.390;2024-01-25T11:57:16;8.85;67.09
47757;SHT35;22147;52.388;13.390;2024-01-25T11:59:47;8.79;67.58
47757;SHT35;22147;52.388;13.390;2024-01-25T12:02:17;8.76;68.08
47757;SHT35;22147;52.388;13.390;2024-01-25T12:04:48;8.82;68.14
47757;SHT35;22147;52.388;13.390;2024-01-25T12:07:18;8.85;67.53
47757;SHT35;22147;52.388;13.390;2024-01-25T12:10:04;8.95;67.40
47757;SHT35;22147;52.388;13.390;2024-01-25T12:12:36;8.92;66.83
47757;SHT35;22147;52.388;13.390;2024-01-25T12:15:07;8.96;66.36
47757;SHT35;22147;52.388;13.390;2024-01-25T12:17:36;9.06;65.50
47757;SHT35;22147;52.388;13.390;2024-01-25T12:20:11;9.23;65.40
47757;SHT35;22147;52.388;13.390;2024-01-25T12:22:42;9.26;64.98
47757;SHT35;22147;52.388;13.390;2024-01-25T12:25:14;9.24;65.20
47757;SHT35;22147;52.388;13.390;2024-01-25T12:27:44;9.23;64.82
47757;SHT35;22147;52.388;13.390;2024-01-25T12:30:16;9.22;65.10
47757;SHT35;22147;52.388;13.390;2024-01-25T12:32:48;9.01;65.30
47757;SHT35;22147;52.388;13.390;2024-01-25T12:35:19;8.99;65.65
47757;SHT35;22147;52.388;13.390;2024-01-25T12:37:49;9.08;65.97
47757;SHT35;22147;52.388;13.390;2024-01-25T12:40:19;9.03;66.04
47757;SHT35;22147;52.388;13.390;2024-01-25T12:42:49;9.09;65.39
47757;SHT35;22147;52.388;13.390;2024-01-25T12:45:19;9.05;65.79
47757;SHT35;22147;52.388;13.390;2024-01-25T12:47:47;8.95;66.52
47757;SHT35;22147;52.388;13.390;2024-01-25T12:50:16;8.98;66.19
47757;SHT35;22147;52.388;13.390;2024-01-25T12:52:46;8.93;66.52
47757;SHT35;22147;52.388;13.390;2024-01-25T12:55:16;8.91;66.22
47757;SHT35;22147;52.388;13.390;2024-01-25T12:57:44;8.85;66.85
47757;SHT35;22147;52.388;13.390;2024-01-25T13:00:13;8.95;66.84
47757;SHT35;22147;52.388;13.390;2024-01-25T13:02:41;8.98;67.07
47757;SHT35;22147;52.388;13.390;2024-01-25T13:05:09;8.92;67.34
47757;SHT35;22147;52.388;13.390;2024-01-25T13:07:38;8.91;67.79
47757;SHT35;22147;52.388;13.390;2024-01-25T13:10:09;8.84;68.11
47757;SHT35;22147;52.388;13.390;2024-01-25T13:12:39;8.78;68.63
47757;SHT35;22147;52.388;13.390;2024-01-25T13:15:09;8.85;67.59
47757;SHT35;22147;52.388;13.390;2024-01-25T13:17:39;8.85;66.80
47757;SHT35;22147;52.388;13.390;2024-01-25T13:20:14;8.68;67.39
47757;SHT35;22147;52.388;13.390;2024-01-25T13:22:45;8.69;66.73
47757;SHT35;22147;52.388;13.390;2024-01-25T13:25:15;8.72;67.34
47757;SHT35;22147;52.388;13.390;2024-01-25T13:27:45;8.63;67.64
47757;SHT35;22147;52.388;13.390;2024-01-25T13:30:15;8.61;67.16
47757;SHT35;22147;52.388;13.390;2024-01-25T13:32:46;8.47;68.34
47757;SHT35;22147;52.388;13.390;2024-01-25T13:35:16;8.53;68.35
47757;SHT35;22147;52.388;13.390;2024-01-25T13:37:46;8.58;68.65
47757;SHT35;22147;52.388;13.390;2024-01-25T13:40:16;8.54;68.84
47757;SHT35;22147;52.388;13.390;2024-01-25T13:42:49;8.40;69.79
47757;SHT35;22147;52.388;13.390;2024-01-25T13:45:19;8.43;70.26
47757;SHT35;22147;52.388;13.390;2024-01-25T13:47:49;8.47;70.35
47757;SHT35;22147;52.388;13.390;2024-01-25T13:50:22;8.45;70.26
47757;SHT35;22147;52.388;13.390;2024-01-25T13:52:50;8.43;69.70
47757;SHT35;22147;52.388;13.390;2024-01-25T13:55:20;8.45;69.66
47757;SHT35;22147;52.388;13.390;2024-01-25T13:57:51;8.54;69.86
47757;SHT35;22147;52.388;13.390;2024-01-25T14:00:21;8.44;70.87
47757;SHT35;22147;52.388;13.390;2024-01-25T14:02:51;8.47;70.81
47757;SHT35;22147;52.388;13.390;2024-01-25T14:05:21;8.55;70.01
47757;SHT35;22147;52.388;13.390;2024-01-25T14:07:51;8.47;70.19
47757;SHT35;22147;52.388;13.390;2024-01-25T14:10:22;8.36;70.46
47757;SHT35;22147;52.388;13.390;2024-01-25T14:12:52;8.51;69.77
47757;SHT35;22147;52.388;13.390;2024-01-25T14:15:23;8.48;70.16
47757;SHT35;22147;52.388;13.390;2024-01-25T14:17:53;8.43;70.51
47757;SHT35;22147;52.388;13.390;2024-01-25T14:20:22;8.44;70.56
47757;SHT35;22147;52.388;13.390;2024-01-25T14:22:50;8.29;71.42
47757;SHT35;22147;52.388;13.390;2024-01-25T14:25:18;8.45;71.20
47757;SHT35;22147;52.388;13.390;2024-01-25T14:27:47;8.41;71.55
47757;SHT35;22147;52.388;13.390;2024-01-25T14:30:18;8.44;71.48
47757;SHT35;22147;52.388;13.390;2024-01-25T14:32:47;8.40;71.55
47757;SHT35;22147;52.388;13.390;2024-01-25T14:35:15;8.43;71.31
47757;SHT35;22147;52.388;13.390;2024-01-25T14:37:43;8.40;71.46
47757;SHT35;22147;52.388;13.390;2024-01-25T14:40:12;8.38;71.86
47757;SHT35;22147;52.388;13.390;2024-01-25T14:43:03;8.26;71.71
47757;SHT35;22147;52.388;13.390;2024-01-25T14:45:33;8.24;71.92
47757;SHT35;22147;52.388;13.390;2024-01-25T14:48:06;8.38;71.41
47757;SHT35;22147;52.388;13.390;2024-01-25T14:50:36;8.27;71.96
47757;SHT35;22147;52.388;13.390;2024-01-25T14:53:07;8.40;71.64
47757;SHT35;22147;52.388;13.390;2024-01-25T14:55:36;8.22;71.67
47757;SHT35;22147;52.388;13.390;2024-01-25T14:58:07;8.24;70.70
47757;SHT35;22147;52.388;13.390;2024-01-25T15:00:38;8.36;70.44
47757;SHT35;22147;52.388;13.390;2024-01-25T15:03:09;8.34;71.02
47757;SHT35;22147;52.388;13.390;2024-01-25T15:05:40;8.23;71.76
47757;SHT35;22147;52.388;13.390;2024-01-25T15:08:09;8.36;71.51
47757;SHT35;22147;52.388;13.390;2024-01-25T15:10:39;8.19;72.25
47757;SHT35;22147;52.388;13.390;2024-01-25T15:13:09;8.22;72.50
47757;SHT35;22147;52.388;13.390;2024-01-25T15:15:38;8.17;72.22
47757;SHT35;22147;52.388;13.390;2024-01-25T15:18:06;8.19;71.98
47757;SHT35;22147;52.388;13.390;2024-01-25T15:20:35;8.07;72.03
47757;SHT35;22147;52.388;13.390;2024-01-25T15:23:03;8.02;72.02
47757;SHT35;22147;52.388;13.390;2024-01-25T15:25:32;8.16;71.63
47757;SHT35;22147;52.388;13.390;2024-01-25T15:28:00;8.07;71.90
47757;SHT35;22147;52.388;13.390;2024-01-25T15:30:28;8.09;72.29
47757;SHT35;22147;52.388;13.390;2024-01-25T15:32:57;8.20;71.94
47757;SHT35;22147;52.388;13.390;2024-01-25T15:35:25;8.12;72.15
47757;SHT35;22147;52.388;13.390;2024-01-25T15:37:54;8.07;72.46
47757;SHT35;22147;52.388;13.390;2024-01-25T15:40:22;8.05;72.65
47757;SHT35;22147;52.388;13.390;2024-01-25T15:42:51;8.06;72.70
47757;SHT35;22147;52.388;13.390;2024-01-25T15:45:22;8.09;72.26
47757;SHT35;22147;52.388;13.390;2024-01-25T15:47:51;7.95;72.89